createdAt,value
2019-03-24T00:02:44.878Z,7.37
2019-03-24T00:04:01.441Z,7.43
2019-03-24T00:05:17.286Z,6.90
2019-03-24T00:06:33.523Z,7.23
2019-03-24T00:07:49.603Z,7.80
2019-03-24T00:09:06.136Z,7.63
2019-03-24T00:10:22.490Z,7.10
2019-03-24T00:11:38.580Z,7.40
2019-03-24T00:12:54.657Z,8.47
2019-03-24T00:14:10.984Z,7.43
2019-03-24T00:15:27.263Z,8.20
2019-03-24T00:16:43.425Z,7.80
2019-03-24T00:17:59.642Z,7.93
2019-03-24T00:19:16.482Z,7.50
2019-03-24T00:20:33.085Z,7.57
2019-03-24T00:21:49.474Z,7.80
2019-03-24T00:23:05.572Z,7.40
2019-03-24T00:24:22.057Z,7.57
2019-03-24T00:25:38.037Z,8.03
2019-03-24T00:26:54.209Z,7.63
2019-03-24T00:28:10.438Z,8.83
2019-03-24T00:29:26.290Z,8.10
2019-03-24T00:30:42.483Z,7.40
2019-03-24T00:31:58.737Z,7.53
2019-03-24T00:33:15.509Z,7.30
2019-03-24T00:34:31.571Z,8.37
2019-03-24T00:35:47.582Z,8.07
2019-03-24T00:37:03.714Z,7.43
2019-03-24T00:38:19.984Z,6.67
2019-03-24T00:39:36.114Z,7.37
2019-03-24T00:40:52.144Z,7.37
2019-03-24T00:42:08.245Z,7.83
2019-03-24T00:43:24.176Z,7.70
2019-03-24T00:44:40.543Z,7.20
2019-03-24T00:45:56.448Z,6.93
2019-03-24T00:47:12.948Z,8.20
2019-03-24T00:48:28.875Z,7.33
2019-03-24T00:49:44.849Z,7.43
2019-03-24T00:51:00.966Z,7.70
2019-03-24T00:52:17.020Z,7.00
2019-03-24T00:53:33.571Z,6.97
2019-03-24T00:54:49.787Z,7.00
2019-03-24T00:56:06.276Z,6.80
2019-03-24T00:57:22.144Z,6.33
2019-03-24T00:58:38.320Z,6.60
2019-03-24T00:59:55.007Z,6.00
2019-03-24T01:01:11.459Z,6.30
2019-03-24T01:02:27.559Z,5.83
2019-03-24T01:03:43.536Z,6.63
2019-03-24T01:04:59.450Z,6.17
2019-03-24T01:06:15.439Z,6.43
2019-03-24T01:07:31.599Z,6.77
2019-03-24T01:08:47.645Z,6.73
2019-03-24T01:10:03.628Z,6.47
2019-03-24T01:11:19.469Z,6.60
2019-03-24T01:12:35.458Z,6.57
2019-03-24T01:13:51.879Z,6.17
2019-03-24T01:15:08.674Z,7.17
2019-03-24T01:16:25.180Z,6.00
2019-03-24T01:17:41.353Z,6.07
2019-03-24T01:18:57.529Z,6.27
2019-03-24T01:20:13.970Z,6.07
2019-03-24T01:21:30.344Z,6.70
2019-03-24T01:22:46.311Z,5.67
2019-03-24T01:24:05.404Z,6.23
2019-03-24T01:25:21.249Z,6.63
2019-03-24T01:26:37.263Z,5.63
2019-03-24T01:27:53.197Z,6.13
2019-03-24T01:29:09.687Z,6.80
2019-03-24T01:30:25.403Z,5.80
2019-03-24T01:31:41.524Z,6.27
2019-03-24T01:32:57.577Z,6.67
2019-03-24T01:34:13.450Z,6.07
2019-03-24T01:35:29.377Z,5.63
2019-03-24T01:36:45.347Z,5.80
2019-03-24T01:38:02.018Z,6.03
2019-03-24T01:39:18.025Z,5.13
2019-03-24T01:40:33.909Z,6.17
2019-03-24T01:41:52.362Z,5.43
2019-03-24T01:43:08.234Z,5.50
2019-03-24T01:44:24.217Z,5.37
2019-03-24T01:47:01.771Z,4.70
2019-03-24T01:49:55.313Z,5.23
2019-03-24T01:51:11.355Z,5.17
2019-03-24T01:52:27.453Z,4.83
2019-03-24T01:53:43.361Z,5.10
2019-03-24T01:54:59.204Z,5.83
2019-03-24T01:56:15.101Z,4.70
2019-03-24T01:57:30.977Z,5.97
2019-03-24T01:58:46.817Z,5.00
2019-03-24T02:00:02.794Z,5.27
2019-03-24T02:01:19.009Z,4.87
2019-03-24T02:02:35.126Z,4.93
2019-03-24T02:03:51.474Z,4.90
2019-03-24T02:05:08.186Z,5.23
2019-03-24T02:06:24.634Z,4.83
2019-03-24T02:07:40.850Z,5.30
2019-03-24T02:08:56.996Z,4.37
2019-03-24T02:10:12.860Z,5.60
2019-03-24T02:11:29.313Z,5.07
2019-03-24T02:12:45.355Z,5.53
2019-03-24T02:14:01.397Z,4.47
2019-03-24T02:15:17.495Z,5.37
2019-03-24T02:16:33.392Z,5.00
2019-03-24T02:17:49.660Z,4.43
2019-03-24T02:19:05.889Z,5.27
2019-03-24T02:20:21.924Z,5.27
2019-03-24T02:21:37.671Z,4.13
2019-03-24T02:22:53.733Z,4.00
2019-03-24T02:24:11.716Z,3.37
2019-03-24T02:25:27.753Z,3.33
2019-03-24T02:26:43.833Z,3.53
2019-03-24T02:27:59.788Z,4.00
2019-03-24T02:29:15.665Z,4.73
2019-03-24T02:30:32.209Z,4.60
2019-03-24T02:31:48.034Z,3.83
2019-03-24T02:33:03.873Z,3.83
2019-03-24T02:34:19.610Z,3.80
2019-03-24T02:35:35.546Z,4.30
2019-03-24T02:36:51.476Z,3.60
2019-03-24T02:38:07.382Z,4.17
2019-03-24T02:39:23.389Z,4.00
2019-03-24T02:40:39.549Z,4.17
2019-03-24T02:41:55.249Z,4.13
2019-03-24T02:43:11.137Z,4.07
2019-03-24T02:44:27.057Z,4.10
2019-03-24T02:45:42.904Z,3.97
2019-03-24T02:46:58.968Z,4.33
2019-03-24T02:48:15.458Z,4.20
2019-03-24T02:49:31.818Z,3.97
2019-03-24T02:50:48.108Z,5.07
2019-03-24T02:52:06.450Z,3.73
2019-03-24T02:53:22.223Z,4.27
2019-03-24T02:54:38.113Z,4.10
2019-03-24T02:55:54.057Z,4.33
2019-03-24T02:57:10.086Z,5.77
2019-03-24T02:58:25.916Z,3.43
2019-03-24T02:59:41.770Z,4.40
2019-03-24T03:00:57.598Z,4.23
2019-03-24T03:02:13.277Z,4.27
2019-03-24T03:03:29.024Z,4.57
2019-03-24T03:04:45.126Z,4.27
2019-03-24T03:06:01.026Z,3.87
2019-03-24T03:07:17.422Z,3.97
2019-03-24T03:08:33.044Z,4.53
2019-03-24T03:09:48.962Z,3.77
2019-03-24T03:11:05.179Z,3.70
2019-03-24T03:12:20.826Z,4.83
2019-03-24T03:13:36.865Z,4.53
2019-03-24T03:14:53.335Z,4.73
2019-03-24T03:16:09.212Z,4.10
2019-03-24T03:17:25.168Z,4.33
2019-03-24T03:18:41.511Z,4.20
2019-03-24T03:19:57.596Z,5.10
2019-03-24T03:21:13.785Z,4.20
2019-03-24T03:22:29.869Z,3.87
2019-03-24T03:23:45.742Z,4.10
2019-03-24T03:25:01.767Z,4.00
2019-03-24T03:26:18.259Z,4.17
2019-03-24T03:27:34.893Z,4.33
2019-03-24T03:28:50.676Z,4.67
2019-03-24T03:30:06.529Z,4.27
2019-03-24T03:31:23.346Z,4.27
2019-03-24T03:32:40.220Z,4.70
2019-03-24T03:33:56.138Z,4.63
2019-03-24T03:35:12.149Z,5.03
2019-03-24T03:36:28.260Z,4.60
2019-03-24T03:37:44.523Z,4.57
2019-03-24T03:39:00.404Z,4.90
2019-03-24T03:40:17.431Z,5.23
2019-03-24T03:41:34.054Z,4.43
2019-03-24T03:42:50.480Z,4.70
2019-03-24T03:44:06.292Z,4.40
2019-03-24T03:45:22.376Z,4.80
2019-03-24T03:48:10.116Z,4.67
2019-03-24T03:49:52.814Z,4.47
2019-03-24T03:51:16.828Z,3.80
2019-03-24T03:54:11.985Z,4.73
2019-03-24T03:57:37.811Z,4.40
2019-03-24T03:59:01.951Z,5.23
2019-03-24T04:00:44.461Z,4.93
2019-03-24T04:02:08.202Z,3.90
2019-03-24T04:03:50.835Z,4.73
2019-03-24T04:06:57.200Z,4.10
2019-03-24T04:08:20.883Z,5.03
2019-03-24T04:10:03.786Z,4.90
2019-03-24T04:11:27.814Z,4.27
2019-03-24T04:12:51.609Z,4.87
2019-03-24T04:15:45.470Z,4.70
2019-03-24T04:17:09.140Z,4.30
2019-03-24T04:20:02.565Z,4.03
2019-03-24T04:23:10.759Z,4.60
2019-03-24T04:26:03.547Z,4.80
2019-03-24T04:27:27.261Z,4.87
2019-03-24T04:31:49.737Z,5.37
2019-03-24T04:33:13.592Z,5.50
2019-03-24T04:34:37.367Z,5.63
2019-03-24T04:36:01.065Z,5.90
2019-03-24T04:37:24.716Z,4.30
2019-03-24T04:38:48.326Z,4.47
2019-03-24T04:40:25.961Z,5.13
2019-03-24T04:41:37.444Z,4.37
2019-03-24T04:43:01.163Z,5.47
2019-03-24T04:44:24.949Z,5.53
2019-03-24T04:45:41.204Z,5.60
2019-03-24T04:46:57.069Z,5.53
2019-03-24T04:48:13.480Z,5.60
2019-03-24T04:49:28.417Z,5.83
2019-03-24T04:50:52.388Z,6.00
2019-03-24T04:55:44.001Z,5.20
2019-03-24T04:57:26.786Z,5.53
2019-03-24T05:02:24.994Z,5.30
2019-03-24T05:03:48.946Z,5.53
2019-03-24T05:05:12.800Z,5.50
2019-03-24T05:06:36.844Z,6.13
2019-03-24T05:08:00.580Z,5.80
2019-03-24T05:11:27.626Z,6.23
2019-03-24T05:12:51.367Z,6.70
2019-03-24T05:15:58.228Z,5.53
2019-03-24T05:17:27.071Z,6.40
2019-03-24T05:18:47.405Z,7.07
2019-03-24T05:21:55.578Z,7.23
2019-03-24T05:23:19.427Z,7.43
2019-03-24T05:32:29.107Z,7.43
2019-03-24T05:36:54.554Z,6.90
2019-03-24T05:38:18.260Z,6.60
2019-03-24T05:41:26.292Z,6.60
2019-03-24T05:46:12.282Z,7.13
2019-03-24T05:47:36.820Z,6.80
2019-03-24T05:48:46.741Z,7.03
2019-03-24T05:50:02.551Z,8.67
2019-03-24T05:51:18.512Z,7.27
2019-03-24T05:52:34.827Z,7.70
2019-03-24T05:53:50.836Z,8.63
2019-03-24T05:55:06.820Z,7.00
2019-03-24T05:56:22.716Z,7.97
2019-03-24T05:57:38.697Z,8.70
2019-03-24T05:58:54.704Z,7.60
2019-03-24T06:00:10.673Z,8.13
2019-03-24T06:01:26.635Z,7.97
2019-03-24T06:02:43.233Z,7.80
2019-03-24T06:03:59.321Z,8.37
2019-03-24T06:05:15.907Z,8.73
2019-03-24T06:06:32.582Z,7.50
2019-03-24T06:07:48.765Z,7.93
2019-03-24T06:09:05.427Z,8.27
2019-03-24T06:10:21.370Z,8.80
2019-03-24T06:11:37.268Z,8.27
2019-03-24T06:12:53.274Z,8.43
2019-03-24T06:14:09.485Z,7.67
2019-03-24T06:15:24.536Z,8.13
2019-03-24T06:17:07.218Z,7.17
2019-03-24T06:20:01.823Z,6.60
2019-03-24T06:23:22.357Z,6.40
2019-03-24T06:24:35.624Z,6.60
2019-03-24T06:32:25.604Z,6.97
2019-03-24T06:38:20.476Z,6.70
2019-03-24T06:39:44.712Z,5.90
2019-03-24T06:42:37.286Z,6.97
2019-03-24T06:44:01.015Z,6.33
2019-03-24T06:45:28.780Z,6.20
2019-03-24T06:48:40.046Z,5.73
2019-03-24T06:50:03.912Z,6.30
2019-03-24T06:53:10.633Z,5.90
2019-03-24T06:57:48.437Z,5.13
2019-03-24T06:59:12.186Z,5.83
2019-03-24T07:02:04.983Z,6.27
2019-03-24T07:11:13.881Z,5.53
2019-03-24T07:14:39.400Z,5.70
2019-03-24T07:16:03.250Z,6.00
2019-03-24T07:19:10.268Z,5.60
2019-03-24T07:22:03.218Z,5.95
2019-03-24T07:25:11.711Z,5.87
2019-03-24T07:26:35.794Z,6.53
2019-03-24T07:27:59.528Z,6.90
2019-03-24T07:32:38.695Z,6.00
2019-03-24T07:35:52.660Z,6.53
2019-03-24T07:40:23.331Z,6.40
2019-03-24T07:43:31.430Z,5.83
2019-03-24T07:49:59.062Z,6.20
2019-03-24T07:51:10.656Z,5.77
2019-03-24T07:55:49.434Z,7.33
2019-03-24T07:57:00.906Z,5.20
2019-03-24T07:58:24.800Z,6.13
2019-03-24T08:11:23.097Z,6.22
2019-03-24T08:14:22.271Z,5.70
2019-03-24T08:16:05.056Z,6.00
2019-03-24T08:30:43.240Z,5.95
2019-03-24T08:32:25.963Z,6.12
2019-03-24T08:40:22.486Z,6.10
2019-03-24T08:42:05.373Z,5.22
2019-03-24T08:48:07.499Z,6.90
2019-03-24T08:57:39.853Z,5.95
2019-03-24T09:06:50.955Z,5.03
2019-03-24T09:11:31.559Z,5.10
2019-03-24T09:14:59.253Z,5.30
2019-03-24T09:23:12.854Z,5.00
2019-03-24T09:26:21.271Z,5.62
2019-03-24T09:32:45.815Z,5.03
2019-03-24T09:37:48.395Z,6.17
2019-03-24T09:45:40.164Z,5.20
2019-03-24T09:46:56.258Z,5.12
2019-03-24T09:48:12.623Z,5.28
2019-03-24T09:49:28.788Z,5.10
2019-03-24T09:50:44.944Z,4.90
2019-03-24T09:52:01.626Z,5.85
2019-03-24T09:53:18.422Z,4.95
2019-03-24T09:54:34.377Z,5.22
2019-03-24T09:55:50.471Z,6.47
2019-03-24T09:57:06.798Z,6.87
2019-03-24T09:58:22.941Z,6.97
2019-03-24T09:59:39.014Z,6.58
2019-03-24T10:00:54.855Z,8.28
2019-03-24T10:02:10.970Z,7.40
2019-03-24T10:03:27.101Z,6.28
2019-03-24T10:04:43.140Z,6.03
2019-03-24T10:05:59.303Z,5.70
2019-03-24T10:07:15.132Z,6.53
2019-03-24T10:08:31.268Z,6.12
2019-03-24T10:09:48.271Z,5.20
2019-03-24T10:11:04.166Z,5.62
2019-03-24T10:12:20.340Z,5.30
2019-03-24T10:13:36.378Z,5.03
2019-03-24T10:14:52.450Z,5.72
2019-03-24T10:16:09.320Z,4.77
2019-03-24T10:17:25.518Z,4.15
2019-03-24T10:18:41.504Z,4.45
2019-03-24T10:19:57.315Z,5.25
2019-03-24T10:21:13.517Z,5.20
2019-03-24T10:22:29.423Z,5.70
2019-03-24T10:23:47.153Z,5.78
2019-03-24T10:25:03.719Z,5.30
2019-03-24T10:26:20.516Z,5.42
2019-03-24T10:27:36.392Z,5.23
2019-03-24T10:28:52.416Z,4.95
2019-03-24T10:30:08.902Z,5.67
2019-03-24T10:31:25.699Z,4.70
2019-03-24T10:32:42.339Z,5.28
2019-03-24T10:33:58.303Z,4.12
2019-03-24T10:35:14.981Z,6.00
2019-03-24T10:36:31.613Z,6.15
2019-03-24T10:37:48.290Z,5.45
2019-03-24T10:39:05.465Z,4.72
2019-03-24T10:40:28.472Z,5.08
2019-03-24T10:41:40.261Z,5.10
2019-03-24T10:42:56.567Z,5.35
2019-03-24T10:44:12.591Z,4.58
2019-03-24T10:45:28.895Z,4.33
2019-03-24T10:46:45.681Z,4.22
2019-03-24T10:48:01.830Z,4.15
2019-03-24T10:50:38.361Z,4.97
2019-03-24T10:51:55.044Z,3.67
2019-03-24T10:53:11.314Z,4.22
2019-03-24T10:54:27.873Z,3.50
2019-03-24T10:55:44.114Z,3.62
2019-03-24T10:57:00.726Z,2.83
2019-03-24T10:58:16.728Z,3.02
2019-03-24T10:59:32.739Z,2.98
2019-03-24T11:00:49.083Z,3.55
2019-03-24T11:02:05.795Z,3.08
2019-03-24T11:03:22.626Z,3.30
2019-03-24T11:04:38.691Z,3.27
2019-03-24T11:05:55.353Z,3.70
2019-03-24T11:07:12.052Z,3.33
2019-03-24T11:08:28.023Z,3.17
2019-03-24T11:09:45.168Z,3.22
2019-03-24T11:11:01.877Z,3.45
2019-03-24T11:12:17.833Z,3.05
2019-03-24T11:13:34.113Z,2.95
2019-03-24T11:14:50.483Z,2.85
2019-03-24T11:16:06.703Z,2.95
2019-03-24T11:17:23.424Z,3.47
2019-03-24T11:18:40.362Z,2.17
2019-03-24T11:19:56.622Z,2.42
2019-03-24T11:21:12.587Z,2.90
2019-03-24T11:22:29.299Z,2.77
2019-03-24T11:23:45.259Z,2.35
2019-03-24T11:25:01.378Z,2.42
2019-03-24T11:26:18.184Z,2.50
2019-03-24T11:27:34.278Z,2.87
2019-03-24T11:28:50.256Z,2.33
2019-03-24T11:30:06.898Z,2.00
2019-03-24T11:31:23.359Z,2.70
2019-03-24T11:32:39.783Z,2.27
2019-03-24T11:33:55.827Z,2.40
2019-03-24T11:35:12.253Z,2.20
2019-03-24T11:36:28.140Z,2.35
2019-03-24T11:37:44.371Z,2.90
2019-03-24T11:39:00.174Z,2.72
2019-03-24T11:40:16.350Z,2.40
2019-03-24T11:41:32.377Z,2.52
2019-03-24T11:42:48.300Z,3.12
2019-03-24T11:44:04.377Z,2.77
2019-03-24T11:45:20.396Z,2.65
2019-03-24T11:46:36.639Z,2.80
2019-03-24T11:47:52.435Z,3.08
2019-03-24T11:49:09.087Z,2.60
2019-03-24T11:50:25.135Z,1.90
2019-03-24T11:51:41.333Z,1.98
2019-03-24T11:52:57.207Z,2.47
2019-03-24T11:54:13.446Z,2.60
2019-03-24T11:55:29.811Z,2.60
2019-03-24T11:56:46.380Z,2.52
2019-03-24T11:58:05.925Z,2.52
2019-03-24T11:59:20.612Z,2.00
2019-03-24T12:00:37.460Z,2.08
2019-03-24T12:01:54.138Z,2.33
2019-03-24T12:03:10.112Z,2.05
2019-03-24T12:04:26.163Z,1.77
2019-03-24T12:05:42.392Z,2.12
2019-03-24T12:06:59.178Z,2.58
2019-03-24T12:08:15.274Z,2.90
2019-03-24T12:09:31.386Z,2.75
2019-03-24T12:10:47.427Z,2.67
2019-03-24T12:12:03.714Z,2.17
2019-03-24T12:13:19.717Z,2.45
2019-03-24T12:14:35.755Z,2.42
2019-03-24T12:15:51.979Z,2.70
2019-03-24T12:17:07.902Z,1.80
2019-03-24T12:18:24.038Z,1.72
2019-03-24T12:19:40.183Z,2.27
2019-03-24T12:20:56.734Z,2.87
2019-03-24T12:22:13.449Z,3.08
2019-03-24T12:23:29.543Z,2.50
2019-03-24T12:24:45.874Z,2.62
2019-03-24T12:26:01.977Z,2.60
2019-03-24T12:27:18.246Z,2.72
2019-03-24T12:28:34.384Z,2.60
2019-03-24T12:29:50.959Z,2.50
2019-03-24T12:31:07.564Z,2.72
2019-03-24T12:32:23.574Z,2.95
2019-03-24T12:33:39.535Z,2.95
2019-03-24T12:34:56.274Z,2.83
2019-03-24T12:36:15.420Z,2.65
2019-03-24T12:37:31.782Z,2.67
2019-03-24T12:38:48.393Z,2.50
2019-03-24T12:40:04.343Z,2.40
2019-03-24T12:41:20.341Z,3.20
2019-03-24T12:42:36.594Z,1.82
2019-03-24T12:43:52.657Z,1.67
2019-03-24T12:45:08.796Z,1.90
2019-03-24T12:46:25.425Z,2.10
2019-03-24T12:47:41.517Z,2.52
2019-03-24T12:48:57.468Z,2.22
2019-03-24T12:52:01.312Z,1.70
2019-03-24T12:53:17.443Z,5.03
2019-03-24T12:55:47.816Z,2.87
2019-03-24T12:57:04.094Z,2.77
2019-03-24T12:58:20.279Z,3.10
2019-03-24T12:59:36.329Z,2.40
2019-03-24T13:00:52.803Z,1.77
2019-03-24T13:02:09.296Z,1.30
2019-03-24T13:03:25.737Z,1.30
2019-03-24T13:04:42.448Z,1.15
2019-03-24T13:05:58.951Z,1.70
2019-03-24T13:07:15.101Z,1.30
2019-03-24T13:08:31.894Z,1.77
2019-03-24T13:09:48.084Z,2.00
2019-03-24T13:11:04.393Z,2.50
2019-03-24T13:12:20.646Z,2.00
2019-03-24T13:13:38.932Z,1.90
2019-03-24T13:14:55.145Z,2.22
2019-03-24T13:16:11.092Z,1.37
2019-03-24T13:17:27.413Z,1.67
2019-03-24T13:18:44.071Z,1.50
2019-03-24T13:20:00.443Z,1.45
2019-03-24T13:21:16.219Z,1.30
2019-03-24T13:22:32.200Z,1.20
2019-03-24T13:23:48.168Z,1.27
2019-03-24T13:25:04.114Z,1.80
2019-03-24T13:26:20.074Z,2.10
2019-03-24T13:27:35.843Z,1.52
2019-03-24T13:28:52.490Z,2.12
2019-03-24T13:30:08.431Z,1.95
2019-03-24T13:31:24.495Z,2.22
2019-03-24T13:32:40.607Z,2.08
2019-03-24T13:33:56.915Z,1.98
2019-03-24T13:35:13.526Z,2.42
2019-03-24T13:36:30.058Z,2.75
2019-03-24T13:37:45.915Z,3.40
2019-03-24T13:39:01.756Z,2.63
2019-03-24T13:40:17.551Z,2.70
2019-03-24T13:41:34.240Z,5.10
2019-03-24T13:42:50.279Z,3.77
2019-03-24T13:44:06.374Z,3.67
2019-03-24T13:45:22.510Z,4.10
2019-03-24T13:46:38.790Z,3.10
2019-03-24T13:50:34.986Z,3.33
2019-03-24T13:51:50.883Z,4.15
2019-03-24T13:53:07.584Z,3.30
2019-03-24T13:54:23.858Z,3.25
2019-03-24T13:55:40.546Z,3.45
2019-03-24T13:56:56.431Z,3.33
2019-03-24T13:58:12.545Z,3.08
2019-03-24T13:59:29.424Z,2.85
2019-03-24T14:00:45.345Z,2.33
2019-03-24T14:02:01.258Z,3.02
2019-03-24T14:03:17.315Z,3.25
2019-03-24T14:04:33.436Z,2.52
2019-03-24T14:05:49.507Z,2.75
2019-03-24T14:07:05.498Z,3.08
2019-03-24T14:08:21.850Z,2.80
2019-03-24T14:09:38.570Z,2.72
2019-03-24T14:10:54.429Z,3.33
2019-03-24T14:12:10.390Z,4.33
2019-03-24T14:13:26.554Z,3.67
2019-03-24T14:14:42.737Z,4.45
2019-03-24T14:15:58.929Z,3.20
2019-03-24T14:17:15.482Z,3.40
2019-03-24T14:19:51.096Z,3.50
2019-03-24T14:21:07.022Z,3.60
2019-03-24T14:22:23.411Z,3.40
2019-03-24T14:23:39.914Z,3.62
2019-03-24T14:24:55.720Z,2.80
2019-03-24T14:26:11.630Z,3.00
2019-03-24T14:27:28.316Z,2.98
2019-03-24T14:28:44.507Z,3.37
2019-03-24T14:30:00.440Z,3.37
2019-03-24T14:31:16.452Z,3.40
2019-03-24T14:32:32.762Z,3.10
2019-03-24T14:33:48.796Z,3.60
2019-03-24T14:35:04.951Z,3.60
2019-03-24T14:36:21.937Z,3.10
2019-03-24T14:37:38.098Z,2.92
2019-03-24T14:38:55.440Z,3.30
2019-03-24T14:40:11.388Z,3.55
2019-03-24T14:41:27.873Z,3.15
2019-03-24T14:42:44.411Z,3.50
2019-03-24T14:44:00.273Z,4.17
2019-03-24T14:45:16.217Z,4.27
2019-03-24T14:46:32.567Z,3.62
2019-03-24T14:47:48.810Z,3.15
2019-03-24T14:49:05.084Z,3.98
2019-03-24T14:50:20.806Z,2.70
2019-03-24T14:51:36.801Z,2.75
2019-03-24T14:52:52.517Z,2.70
2019-03-24T14:54:08.621Z,3.17
2019-03-24T14:55:24.554Z,2.63
2019-03-24T14:56:40.943Z,2.00
2019-03-24T14:57:56.719Z,2.50
2019-03-24T14:59:13.720Z,1.87
2019-03-24T15:00:30.249Z,2.62
2019-03-24T15:01:46.737Z,2.40
2019-03-24T15:03:02.762Z,2.17
2019-03-24T15:04:18.805Z,2.40
2019-03-24T15:05:35.688Z,2.52
2019-03-24T15:06:52.182Z,2.22
2019-03-24T15:08:08.138Z,2.12
2019-03-24T15:09:24.274Z,2.52
2019-03-24T15:10:40.369Z,2.20
2019-03-24T15:11:58.602Z,2.53
2019-03-24T15:13:14.591Z,1.87
2019-03-24T15:14:30.501Z,2.57
2019-03-24T15:15:46.393Z,2.05
2019-03-24T15:17:03.177Z,3.00
2019-03-24T15:18:19.390Z,2.60
2019-03-24T15:19:35.458Z,2.15
2019-03-24T15:20:51.300Z,3.05
2019-03-24T15:22:07.298Z,2.50
2019-03-24T15:23:23.305Z,2.25
2019-03-24T15:24:39.321Z,2.40
2019-03-24T15:25:55.115Z,2.67
2019-03-24T15:27:11.253Z,2.52
2019-03-24T15:28:28.017Z,2.40
2019-03-24T15:29:43.905Z,3.55
2019-03-24T15:31:00.015Z,2.90
2019-03-24T15:32:16.104Z,3.10
2019-03-24T15:33:32.045Z,2.50
2019-03-24T15:34:48.092Z,3.50
2019-03-24T15:36:04.218Z,2.52
2019-03-24T15:37:20.126Z,3.20
2019-03-24T15:38:36.459Z,3.20
2019-03-24T15:39:52.469Z,3.60
2019-03-24T15:41:08.720Z,2.83
2019-03-24T15:42:24.883Z,2.42
2019-03-24T15:43:41.216Z,3.87
2019-03-24T15:44:57.554Z,4.80
2019-03-24T15:46:13.445Z,3.25
2019-03-24T15:47:30.618Z,2.33
2019-03-24T15:48:46.465Z,2.10
2019-03-24T15:50:02.537Z,2.50
2019-03-24T15:51:18.813Z,1.53
2019-03-24T15:52:35.786Z,2.17
2019-03-24T15:53:52.354Z,1.67
2019-03-24T15:55:07.439Z,1.92
2019-03-24T15:56:23.412Z,2.02
2019-03-24T15:57:40.514Z,1.80
2019-03-24T15:58:57.138Z,2.00
2019-03-24T16:00:13.666Z,2.60
2019-03-24T16:01:29.916Z,1.82
2019-03-24T16:02:46.690Z,1.77
2019-03-24T16:04:03.155Z,2.17
2019-03-24T16:05:19.789Z,1.80
2019-03-24T16:06:35.866Z,1.47
2019-03-24T16:09:09.586Z,1.70
2019-03-24T16:10:34.836Z,1.80
2019-03-24T16:11:44.270Z,1.80
2019-03-24T16:13:00.269Z,2.05
2019-03-24T16:14:16.372Z,2.00
2019-03-24T16:15:32.390Z,2.00
2019-03-24T16:16:48.885Z,1.72
2019-03-24T16:18:05.598Z,2.03
2019-03-24T16:19:21.748Z,1.70
2019-03-24T16:20:38.027Z,2.60
2019-03-24T16:21:54.272Z,2.70
2019-03-24T16:23:11.122Z,2.13
2019-03-24T16:24:27.212Z,2.40
2019-03-24T16:25:43.304Z,2.70
2019-03-24T16:26:59.296Z,1.93
2019-03-24T16:28:15.300Z,1.80
2019-03-24T16:29:31.933Z,2.30
2019-03-24T16:30:47.778Z,2.10
2019-03-24T16:32:04.004Z,1.55
2019-03-24T16:33:20.100Z,1.95
2019-03-24T16:34:36.094Z,2.22
2019-03-24T16:35:52.240Z,2.00
2019-03-24T16:37:08.874Z,1.90
2019-03-24T16:38:25.487Z,2.03
2019-03-24T16:39:41.885Z,2.07
2019-03-24T16:40:58.273Z,2.00
2019-03-24T16:42:14.230Z,2.05
2019-03-24T16:43:30.947Z,3.00
2019-03-24T16:44:47.034Z,2.13
2019-03-24T16:46:03.083Z,1.90
2019-03-24T16:47:19.293Z,2.10
2019-03-24T16:48:37.039Z,2.80
2019-03-24T16:49:53.434Z,2.33
2019-03-24T16:51:09.415Z,2.00
2019-03-24T16:52:25.918Z,2.27
2019-03-24T16:53:41.952Z,1.83
2019-03-24T16:54:58.014Z,2.20
2019-03-24T16:56:13.898Z,2.43
2019-03-24T16:57:30.690Z,2.03
2019-03-24T16:58:47.297Z,2.70
2019-03-24T17:00:04.033Z,2.23
2019-03-24T17:01:19.851Z,2.40
2019-03-24T17:02:36.134Z,2.65
2019-03-24T17:03:52.920Z,2.40
2019-03-24T17:05:09.178Z,2.10
2019-03-24T17:06:25.869Z,2.40
2019-03-24T17:07:42.178Z,2.07
2019-03-24T17:08:58.879Z,2.00
2019-03-24T17:10:14.995Z,1.87
2019-03-24T17:11:31.251Z,2.00
2019-03-24T17:12:48.281Z,1.47
2019-03-24T17:14:05.064Z,1.70
2019-03-24T17:15:21.100Z,1.40
2019-03-24T17:16:37.668Z,1.70
2019-03-24T17:17:54.592Z,1.73
2019-03-24T17:19:10.902Z,1.77
2019-03-24T17:20:26.968Z,1.60
2019-03-24T17:21:49.831Z,1.97
2019-03-24T17:23:02.047Z,1.80
2019-03-24T17:24:17.869Z,1.90
2019-03-24T17:25:34.102Z,1.60
2019-03-24T17:26:50.253Z,1.60
2019-03-24T17:28:06.042Z,1.77
2019-03-24T17:29:22.192Z,1.70
2019-03-24T17:30:39.025Z,1.73
2019-03-24T17:31:54.855Z,1.73
2019-03-24T17:33:10.847Z,1.90
2019-03-24T17:34:27.319Z,1.43
2019-03-24T17:35:43.888Z,1.87
2019-03-24T17:36:59.794Z,1.70
2019-03-24T17:38:15.845Z,1.70
2019-03-24T17:39:32.897Z,1.80
2019-03-24T17:40:49.680Z,1.70
2019-03-24T17:42:05.852Z,1.67
2019-03-24T17:43:22.666Z,1.73
2019-03-24T17:44:38.730Z,1.43
2019-03-24T17:45:54.672Z,2.70
2019-03-24T17:47:10.680Z,1.80
2019-03-24T17:48:26.817Z,1.70
2019-03-24T17:49:42.950Z,1.50
2019-03-24T17:50:59.036Z,1.67
2019-03-24T17:52:15.329Z,1.90
2019-03-24T17:53:32.107Z,2.37
2019-03-24T17:54:50.699Z,2.00
2019-03-24T17:56:06.867Z,2.00
2019-03-24T17:57:22.809Z,1.73
2019-03-24T17:58:38.862Z,2.10
2019-03-24T17:59:54.849Z,1.70
2019-03-24T18:01:10.741Z,1.70
2019-03-24T18:02:27.809Z,2.27
2019-03-24T18:03:43.762Z,1.73
2019-03-24T18:05:00.089Z,2.20
2019-03-24T18:06:16.550Z,1.87
2019-03-24T18:07:33.197Z,2.47
2019-03-24T18:08:49.934Z,2.40
2019-03-24T18:10:06.051Z,2.03
2019-03-24T18:11:22.281Z,2.30
2019-03-24T18:12:38.774Z,2.23
2019-03-24T18:13:54.656Z,2.00
2019-03-24T18:15:10.811Z,1.87
2019-03-24T18:16:27.432Z,2.47
2019-03-24T18:17:43.496Z,2.10
2019-03-24T18:18:59.708Z,2.10
2019-03-24T18:20:15.877Z,2.20
2019-03-24T18:21:32.193Z,1.80
2019-03-24T18:22:49.011Z,1.80
2019-03-24T18:24:04.969Z,2.20
2019-03-24T18:25:21.734Z,2.07
2019-03-24T18:26:37.973Z,2.10
2019-03-24T18:27:54.059Z,2.30
2019-03-24T18:29:10.232Z,3.03
2019-03-24T18:30:26.950Z,2.30
2019-03-24T18:31:43.230Z,1.77
2019-03-24T18:32:59.368Z,2.80
2019-03-24T18:34:15.448Z,1.90
2019-03-24T18:35:31.534Z,2.80
2019-03-24T18:36:47.717Z,2.80
2019-03-24T18:38:03.944Z,2.57
2019-03-24T18:39:20.188Z,2.00
2019-03-24T18:40:36.753Z,3.93
2019-03-24T18:41:53.537Z,2.40
2019-03-24T18:43:09.526Z,2.60
2019-03-24T18:44:26.163Z,2.33
2019-03-24T18:46:59.848Z,2.03
2019-03-24T18:48:15.909Z,2.60
2019-03-24T18:49:31.944Z,2.67
2019-03-24T18:50:47.854Z,2.10
2019-03-24T18:52:04.438Z,2.03
2019-03-24T18:53:20.493Z,2.67
2019-03-24T18:54:37.046Z,2.33
2019-03-24T18:55:53.787Z,2.50
2019-03-24T18:57:09.811Z,2.37
2019-03-24T18:58:25.995Z,2.53
2019-03-24T18:59:42.397Z,2.07
2019-03-24T19:00:58.595Z,2.07
2019-03-24T19:02:14.816Z,2.20
2019-03-24T19:03:30.829Z,2.67
2019-03-24T19:04:47.007Z,2.30
2019-03-24T19:06:03.899Z,2.37
2019-03-24T19:07:19.850Z,2.97
2019-03-24T19:08:35.986Z,3.00
2019-03-24T19:09:52.811Z,2.67
2019-03-24T19:11:08.755Z,2.40
2019-03-24T19:12:24.957Z,2.57
2019-03-24T19:13:41.627Z,2.93
2019-03-24T19:14:57.609Z,2.90
2019-03-24T19:16:13.969Z,2.97
2019-03-24T19:17:30.465Z,4.00
2019-03-24T19:18:46.527Z,2.83
2019-03-24T19:20:02.964Z,3.70
2019-03-24T19:21:19.495Z,3.47
2019-03-24T19:22:35.580Z,2.83
2019-03-24T19:23:52.193Z,3.23
2019-03-24T19:25:08.387Z,2.70
2019-03-24T19:26:24.500Z,2.80
2019-03-24T19:27:41.220Z,2.80
2019-03-24T19:28:57.324Z,2.63
2019-03-24T19:30:13.484Z,2.47
2019-03-24T19:31:29.993Z,3.10
2019-03-24T19:32:45.962Z,2.23
2019-03-24T19:34:02.006Z,2.53
2019-03-24T19:35:17.942Z,3.30
2019-03-24T19:36:34.076Z,2.40
2019-03-24T19:37:49.904Z,2.60
2019-03-24T19:39:05.824Z,3.90
2019-03-24T19:40:22.151Z,3.20
2019-03-24T19:41:38.766Z,3.40
2019-03-24T19:42:55.043Z,2.83
2019-03-24T19:44:10.974Z,2.70
2019-03-24T19:45:27.049Z,2.57
2019-03-24T19:46:43.395Z,3.13
2019-03-24T19:47:59.391Z,3.20
2019-03-24T19:49:16.236Z,3.00
2019-03-24T19:50:32.391Z,2.70
2019-03-24T19:51:48.615Z,3.20
2019-03-24T19:53:04.894Z,3.00
2019-03-24T19:54:21.621Z,2.97
2019-03-24T19:55:37.651Z,3.80
2019-03-24T19:56:53.547Z,3.10
2019-03-24T19:58:09.722Z,3.80
2019-03-24T19:59:26.544Z,3.60
2019-03-24T20:00:42.664Z,3.57
2019-03-24T20:02:01.017Z,3.33
2019-03-24T20:03:17.761Z,3.00
2019-03-24T20:04:33.841Z,3.17
2019-03-24T20:05:50.128Z,2.53
2019-03-24T20:07:06.554Z,3.37
2019-03-24T20:08:22.409Z,2.57
2019-03-24T20:09:38.787Z,3.37
2019-03-24T20:10:54.984Z,3.73
2019-03-24T20:12:11.210Z,2.90
2019-03-24T20:13:27.007Z,3.60
2019-03-24T20:14:43.440Z,4.00
2019-03-24T20:15:59.204Z,3.23
2019-03-24T20:17:15.598Z,3.03
2019-03-24T20:18:32.291Z,3.17
2019-03-24T20:19:48.364Z,2.97
2019-03-24T20:21:04.506Z,2.87
2019-03-24T20:22:20.738Z,2.10
2019-03-24T20:23:36.846Z,2.60
2019-03-24T20:24:52.949Z,1.93
2019-03-24T20:26:09.166Z,2.53
2019-03-24T20:27:25.988Z,2.53
2019-03-24T20:28:43.111Z,2.07
2019-03-24T20:29:59.835Z,2.60